sensor_id;sensor_type;location;lat;lon;timestamp;temperature;humidity
49148;DHT22;41980;45.550;12.070;2023-02-24T00:00:15;9.80;79.00
49148;DHT22;41980;45.550;12.070;2023-02-24T00:06:22;9.70;79.10
49148;DHT22;41980;45.550;12.070;2023-02-24T00:12:24;9.60;79.50
49148;DHT22;41980;45.550;12.070;2023-02-24T00:18:27;9.50;79.30
49148;DHT22;41980;45.550;12.070;2023-02-24T00:24:30;9.50;79.30
49148;DHT22;41980;45.550;12.070;2023-02-24T00:30:31;9.40;79.40
49148;DHT22;41980;45.550;12.070;2023-02-24T00:36:34;9.30;79.30
49148;DHT22;41980;45.550;12.070;2023-02-24T00:42:37;9.20;79.40
49148;DHT22;41980;45.550;12.070;2023-02-24T00:48:40;9.10;79.60
49148;DHT22;41980;45.550;12.070;2023-02-24T00:54:45;9.00;79.70
49148;DHT22;41980;45.550;12.070;2023-02-24T01:00:47;9.00;79.70
49148;DHT22;41980;45.550;12.070;2023-02-24T01:06:50;8.90;80.30
49148;DHT22;41980;45.550;12.070;2023-02-24T01:12:52;8.80;80.00
49148;DHT22;41980;45.550;12.070;2023-02-24T01:18:54;8.70;80.20
49148;DHT22;41980;45.550;12.070;2023-02-24T01:24:57;8.60;80.50
49148;DHT22;41980;45.550;12.070;2023-02-24T01:31:01;8.60;80.10
49148;DHT22;41980;45.550;12.070;2023-02-24T01:37:05;8.60;80.20
49148;DHT22;41980;45.550;12.070;2023-02-24T01:43:08;8.60;80.20
49148;DHT22;41980;45.550;12.070;2023-02-24T01:49:15;8.60;80.20
49148;DHT22;41980;45.550;12.070;2023-02-24T01:55:22;8.60;80.20
49148;DHT22;41980;45.550;12.070;2023-02-24T02:01:26;8.50;80.10
49148;DHT22;41980;45.550;12.070;2023-02-24T02:07:30;8.50;79.90
49148;DHT22;41980;45.550;12.070;2023-02-24T02:13:33;8.50;79.80
49148;DHT22;41980;45.550;12.070;2023-02-24T02:38:12;8.60;79.80
49148;DHT22;41980;45.550;12.070;2023-02-24T02:44:23;8.70;79.70
49148;DHT22;41980;45.550;12.070;2023-02-24T02:56:39;8.70;79.70
49148;DHT22;41980;45.550;12.070;2023-02-24T03:02:45;8.70;79.80
49148;DHT22;41980;45.550;12.070;2023-02-24T03:08:55;8.70;79.80
49148;DHT22;41980;45.550;12.070;2023-02-24T03:15:02;8.70;79.80
49148;DHT22;41980;45.550;12.070;2023-02-24T03:21:12;8.70;79.80
49148;DHT22;41980;45.550;12.070;2023-02-24T03:33:34;8.70;79.90
49148;DHT22;41980;45.550;12.070;2023-02-24T03:39:38;8.70;80.00
49148;DHT22;41980;45.550;12.070;2023-02-24T03:45:47;8.70;80.10
49148;DHT22;41980;45.550;12.070;2023-02-24T03:58:08;8.70;80.00
49148;DHT22;41980;45.550;12.070;2023-02-24T04:04:22;8.50;80.10
49148;DHT22;41980;45.550;12.070;2023-02-24T04:10:44;8.40;80.10
49148;DHT22;41980;45.550;12.070;2023-02-24T04:23:05;8.20;80.40
49148;DHT22;41980;45.550;12.070;2023-02-24T04:29:14;8.10;80.60
49148;DHT22;41980;45.550;12.070;2023-02-24T04:35:21;8.00;80.70
49148;DHT22;41980;45.550;12.070;2023-02-24T04:41:25;7.90;80.80
49148;DHT22;41980;45.550;12.070;2023-02-24T04:47:27;7.90;80.90
49148;DHT22;41980;45.550;12.070;2023-02-24T04:53:29;7.80;81.10
49148;DHT22;41980;45.550;12.070;2023-02-24T04:59:31;7.70;81.30
49148;DHT22;41980;45.550;12.070;2023-02-24T05:05:33;7.70;81.40
49148;DHT22;41980;45.550;12.070;2023-02-24T05:11:35;7.70;81.30
49148;DHT22;41980;45.550;12.070;2023-02-24T05:17:37;7.70;81.20
49148;DHT22;41980;45.550;12.070;2023-02-24T05:23:44;7.70;81.20
49148;DHT22;41980;45.550;12.070;2023-02-24T05:29:46;7.70;81.30
49148;DHT22;41980;45.550;12.070;2023-02-24T05:35:49;7.80;81.20
49148;DHT22;41980;45.550;12.070;2023-02-24T05:41:54;7.80;81.10
49148;DHT22;41980;45.550;12.070;2023-02-24T05:47:57;7.90;81.00
49148;DHT22;41980;45.550;12.070;2023-02-24T05:54:02;7.90;81.10
49148;DHT22;41980;45.550;12.070;2023-02-24T06:00:06;8.10;80.90
49148;DHT22;41980;45.550;12.070;2023-02-24T06:06:16;8.20;81.30
49148;DHT22;41980;45.550;12.070;2023-02-24T06:12:21;8.10;80.60
49148;DHT22;41980;45.550;12.070;2023-02-24T06:18:23;8.10;80.50
49148;DHT22;41980;45.550;12.070;2023-02-24T06:24:26;8.10;80.40
49148;DHT22;41980;45.550;12.070;2023-02-24T06:30:29;8.10;80.40
49148;DHT22;41980;45.550;12.070;2023-02-24T06:36:33;8.00;80.50
49148;DHT22;41980;45.550;12.070;2023-02-24T06:42:35;8.10;80.60
49148;DHT22;41980;45.550;12.070;2023-02-24T06:48:40;8.20;80.50
49148;DHT22;41980;45.550;12.070;2023-02-24T06:54:42;8.30;80.50
49148;DHT22;41980;45.550;12.070;2023-02-24T07:00:45;8.50;80.40
49148;DHT22;41980;45.550;12.070;2023-02-24T07:06:59;8.70;80.20
49148;DHT22;41980;45.550;12.070;2023-02-24T07:13:04;8.80;80.20
49148;DHT22;41980;45.550;12.070;2023-02-24T07:19:12;8.90;80.20
49148;DHT22;41980;45.550;12.070;2023-02-24T07:25:15;8.90;80.20
49148;DHT22;41980;45.550;12.070;2023-02-24T07:31:34;9.00;80.10
49148;DHT22;41980;45.550;12.070;2023-02-24T07:37:37;9.10;80.30
49148;DHT22;41980;45.550;12.070;2023-02-24T07:43:41;9.20;80.20
49148;DHT22;41980;45.550;12.070;2023-02-24T07:49:45;9.30;79.90
49148;DHT22;41980;45.550;12.070;2023-02-24T07:55:47;9.40;79.90
49148;DHT22;41980;45.550;12.070;2023-02-24T08:01:48;9.50;80.00
49148;DHT22;41980;45.550;12.070;2023-02-24T08:07:50;9.70;79.70
49148;DHT22;41980;45.550;12.070;2023-02-24T08:13:52;9.80;79.50
49148;DHT22;41980;45.550;12.070;2023-02-24T08:19:56;9.80;79.50
49148;DHT22;41980;45.550;12.070;2023-02-24T08:26:02;9.80;79.80
49148;DHT22;41980;45.550;12.070;2023-02-24T08:32:05;9.90;79.80
49148;DHT22;41980;45.550;12.070;2023-02-24T08:38:10;10.00;79.90
49148;DHT22;41980;45.550;12.070;2023-02-24T08:44:15;10.10;79.80
49148;DHT22;41980;45.550;12.070;2023-02-24T08:50:19;10.10;79.60
49148;DHT22;41980;45.550;12.070;2023-02-24T08:56:25;10.30;79.60
49148;DHT22;41980;45.550;12.070;2023-02-24T09:02:28;10.30;79.50
49148;DHT22;41980;45.550;12.070;2023-02-24T09:08:32;10.30;79.70
49148;DHT22;41980;45.550;12.070;2023-02-24T09:14:34;10.30;79.60
49148;DHT22;41980;45.550;12.070;2023-02-24T09:20:38;10.30;79.70
49148;DHT22;41980;45.550;12.070;2023-02-24T09:26:44;10.50;79.60
49148;DHT22;41980;45.550;12.070;2023-02-24T09:32:46;10.70;79.50
49148;DHT22;41980;45.550;12.070;2023-02-24T09:38:51;10.80;79.20
49148;DHT22;41980;45.550;12.070;2023-02-24T09:45:01;11.00;79.10
49148;DHT22;41980;45.550;12.070;2023-02-24T09:51:04;11.20;78.80
49148;DHT22;41980;45.550;12.070;2023-02-24T09:57:14;11.30;78.60
49148;DHT22;41980;45.550;12.070;2023-02-24T10:03:22;11.30;78.70
49148;DHT22;41980;45.550;12.070;2023-02-24T10:09:34;11.50;78.60
49148;DHT22;41980;45.550;12.070;2023-02-24T10:15:42;11.40;78.50
49148;DHT22;41980;45.550;12.070;2023-02-24T10:22:07;11.30;78.70
49148;DHT22;41980;45.550;12.070;2023-02-24T10:34:43;11.40;78.90
49148;DHT22;41980;45.550;12.070;2023-02-24T10:41:00;11.60;78.70
49148;DHT22;41980;45.550;12.070;2023-02-24T10:47:11;11.90;78.30
49148;DHT22;41980;45.550;12.070;2023-02-24T10:53:17;12.20;78.30
49148;DHT22;41980;45.550;12.070;2023-02-24T10:59:23;12.50;77.80
49148;DHT22;41980;45.550;12.070;2023-02-24T11:05:26;12.80;77.80
49148;DHT22;41980;45.550;12.070;2023-02-24T11:11:37;12.90;77.00
49148;DHT22;41980;45.550;12.070;2023-02-24T11:23:54;13.10;77.20
49148;DHT22;41980;45.550;12.070;2023-02-24T11:36:05;13.20;76.90
49148;DHT22;41980;45.550;12.070;2023-02-24T11:42:15;13.20;76.90
49148;DHT22;41980;45.550;12.070;2023-02-24T11:48:24;13.20;76.50
49148;DHT22;41980;45.550;12.070;2023-02-24T11:54:34;13.20;76.50
49148;DHT22;41980;45.550;12.070;2023-02-24T12:00:48;13.40;76.40
49148;DHT22;41980;45.550;12.070;2023-02-24T12:19:26;14.00;76.10
49148;DHT22;41980;45.550;12.070;2023-02-24T12:25:43;14.10;75.70
49148;DHT22;41980;45.550;12.070;2023-02-24T13:14:41;14.00;73.40
49148;DHT22;41980;45.550;12.070;2023-02-24T13:20:43;14.10;74.10
49148;DHT22;41980;45.550;12.070;2023-02-24T13:26:46;14.10;74.00
49148;DHT22;41980;45.550;12.070;2023-02-24T13:33:01;14.20;74.00
49148;DHT22;41980;45.550;12.070;2023-02-24T13:39:06;14.30;74.10
49148;DHT22;41980;45.550;12.070;2023-02-24T13:51:27;14.00;73.10
49148;DHT22;41980;45.550;12.070;2023-02-24T14:04:01;13.60;73.70
49148;DHT22;41980;45.550;12.070;2023-02-24T14:10:14;13.60;73.50
49148;DHT22;41980;45.550;12.070;2023-02-24T14:16:22;13.70;73.20
49148;DHT22;41980;45.550;12.070;2023-02-24T14:22:26;13.70;73.50
49148;DHT22;41980;45.550;12.070;2023-02-24T14:28:30;13.70;72.40
49148;DHT22;41980;45.550;12.070;2023-02-24T14:34:33;13.60;73.00
49148;DHT22;41980;45.550;12.070;2023-02-24T14:40:35;13.50;73.10
49148;DHT22;41980;45.550;12.070;2023-02-24T14:46:46;13.30;73.20
49148;DHT22;41980;45.550;12.070;2023-02-24T14:52:50;13.30;73.00
49148;DHT22;41980;45.550;12.070;2023-02-24T15:05:07;13.10;73.30
49148;DHT22;41980;45.550;12.070;2023-02-24T15:17:18;13.00;73.60
49148;DHT22;41980;45.550;12.070;2023-02-24T15:23:26;13.00;73.90
49148;DHT22;41980;45.550;12.070;2023-02-24T15:29:30;13.00;74.00
49148;DHT22;41980;45.550;12.070;2023-02-24T15:35:34;13.00;73.90
49148;DHT22;41980;45.550;12.070;2023-02-24T15:41:42;12.90;74.10
49148;DHT22;41980;45.550;12.070;2023-02-24T15:47:44;12.80;74.20
49148;DHT22;41980;45.550;12.070;2023-02-24T15:53:47;12.60;74.30
49148;DHT22;41980;45.550;12.070;2023-02-24T15:59:49;12.50;74.60
49148;DHT22;41980;45.550;12.070;2023-02-24T16:05:51;12.30;74.90
49148;DHT22;41980;45.550;12.070;2023-02-24T16:11:53;12.20;75.10
49148;DHT22;41980;45.550;12.070;2023-02-24T16:17:56;12.00;75.30
49148;DHT22;41980;45.550;12.070;2023-02-24T16:23:58;11.80;75.40
49148;DHT22;41980;45.550;12.070;2023-02-24T16:30:01;11.70;75.50
49148;DHT22;41980;45.550;12.070;2023-02-24T16:36:04;11.60;75.70
49148;DHT22;41980;45.550;12.070;2023-02-24T16:42:09;11.50;75.90
49148;DHT22;41980;45.550;12.070;2023-02-24T16:48:18;11.30;76.00
49148;DHT22;41980;45.550;12.070;2023-02-24T16:54:21;11.20;76.30
49148;DHT22;41980;45.550;12.070;2023-02-24T17:00:24;11.00;76.60
49148;DHT22;41980;45.550;12.070;2023-02-24T17:06:26;11.00;76.70
49148;DHT22;41980;45.550;12.070;2023-02-24T17:12:29;10.90;76.90
49148;DHT22;41980;45.550;12.070;2023-02-24T17:18:31;10.80;77.00
49148;DHT22;41980;45.550;12.070;2023-02-24T17:24:34;10.60;77.20
49148;DHT22;41980;45.550;12.070;2023-02-24T17:30:36;10.50;77.40
49148;DHT22;41980;45.550;12.070;2023-02-24T17:36:39;10.30;77.80
49148;DHT22;41980;45.550;12.070;2023-02-24T17:42:41;10.20;78.80
49148;DHT22;41980;45.550;12.070;2023-02-24T17:48:43;10.20;78.40
49148;DHT22;41980;45.550;12.070;2023-02-24T17:54:45;10.20;79.50
49148;DHT22;41980;45.550;12.070;2023-02-24T18:00:47;10.10;78.90
49148;DHT22;41980;45.550;12.070;2023-02-24T18:06:49;10.10;78.70
49148;DHT22;41980;45.550;12.070;2023-02-24T18:12:51;10.10;78.90
49148;DHT22;41980;45.550;12.070;2023-02-24T18:18:53;10.00;79.20
49148;DHT22;41980;45.550;12.070;2023-02-24T18:24:56;10.00;79.40
49148;DHT22;41980;45.550;12.070;2023-02-24T18:30:58;10.10;79.40
49148;DHT22;41980;45.550;12.070;2023-02-24T18:37:01;10.00;79.50
49148;DHT22;41980;45.550;12.070;2023-02-24T18:43:03;10.10;79.60
49148;DHT22;41980;45.550;12.070;2023-02-24T18:49:06;10.00;79.60
49148;DHT22;41980;45.550;12.070;2023-02-24T18:55:09;10.00;80.20
49148;DHT22;41980;45.550;12.070;2023-02-24T19:01:15;9.90;82.00
49148;DHT22;41980;45.550;12.070;2023-02-24T19:07:18;9.80;80.50
49148;DHT22;41980;45.550;12.070;2023-02-24T19:13:20;9.90;80.50
49148;DHT22;41980;45.550;12.070;2023-02-24T19:19:24;9.80;80.80
49148;DHT22;41980;45.550;12.070;2023-02-24T19:25:28;9.70;81.80
49148;DHT22;41980;45.550;12.070;2023-02-24T19:31:31;9.70;81.30
49148;DHT22;41980;45.550;12.070;2023-02-24T19:37:34;9.70;81.10
49148;DHT22;41980;45.550;12.070;2023-02-24T19:43:36;9.70;81.10
49148;DHT22;41980;45.550;12.070;2023-02-24T19:49:38;9.60;81.70
49148;DHT22;41980;45.550;12.070;2023-02-24T19:55:39;9.50;82.50
49148;DHT22;41980;45.550;12.070;2023-02-24T20:01:42;9.50;81.80
49148;DHT22;41980;45.550;12.070;2023-02-24T20:07:44;9.50;82.30
49148;DHT22;41980;45.550;12.070;2023-02-24T20:13:47;9.50;81.50
49148;DHT22;41980;45.550;12.070;2023-02-24T20:19:49;9.50;81.50
49148;DHT22;41980;45.550;12.070;2023-02-24T20:25:53;9.50;81.80
49148;DHT22;41980;45.550;12.070;2023-02-24T20:31:55;9.50;81.70
49148;DHT22;41980;45.550;12.070;2023-02-24T20:37:57;9.50;82.10
49148;DHT22;41980;45.550;12.070;2023-02-24T20:43:59;9.50;81.50
49148;DHT22;41980;45.550;12.070;2023-02-24T20:50:01;9.60;82.50
49148;DHT22;41980;45.550;12.070;2023-02-24T20:56:05;9.60;81.70
49148;DHT22;41980;45.550;12.070;2023-02-24T21:02:10;9.50;81.80
49148;DHT22;41980;45.550;12.070;2023-02-24T21:08:13;9.50;83.10
49148;DHT22;41980;45.550;12.070;2023-02-24T21:14:15;9.50;83.10
49148;DHT22;41980;45.550;12.070;2023-02-24T21:20:19;9.50;82.20
49148;DHT22;41980;45.550;12.070;2023-02-24T21:26:21;9.50;82.90
49148;DHT22;41980;45.550;12.070;2023-02-24T21:32:27;9.50;82.00
49148;DHT22;41980;45.550;12.070;2023-02-24T21:38:29;9.50;81.90
49148;DHT22;41980;45.550;12.070;2023-02-24T21:44:32;9.60;82.20
49148;DHT22;41980;45.550;12.070;2023-02-24T21:50:34;9.60;83.00
49148;DHT22;41980;45.550;12.070;2023-02-24T21:56:36;9.60;83.00
49148;DHT22;41980;45.550;12.070;2023-02-24T22:02:38;9.60;82.70
49148;DHT22;41980;45.550;12.070;2023-02-24T22:08:40;9.60;82.50
49148;DHT22;41980;45.550;12.070;2023-02-24T22:14:45;9.50;82.70
49148;DHT22;41980;45.550;12.070;2023-02-24T22:20:47;9.60;81.80
49148;DHT22;41980;45.550;12.070;2023-02-24T22:26:49;9.60;83.00
49148;DHT22;41980;45.550;12.070;2023-02-24T22:32:52;9.60;82.20
49148;DHT22;41980;45.550;12.070;2023-02-24T22:38:56;9.60;81.90
49148;DHT22;41980;45.550;12.070;2023-02-24T22:44:58;9.60;82.10
49148;DHT22;41980;45.550;12.070;2023-02-24T22:51:04;9.70;81.60
49148;DHT22;41980;45.550;12.070;2023-02-24T22:57:08;9.70;81.40
49148;DHT22;41980;45.550;12.070;2023-02-24T23:03:12;9.50;81.60
49148;DHT22;41980;45.550;12.070;2023-02-24T23:09:14;9.50;81.70
49148;DHT22;41980;45.550;12.070;2023-02-24T23:15:20;9.60;81.70
49148;DHT22;41980;45.550;12.070;2023-02-24T23:21:25;9.70;81.80
49148;DHT22;41980;45.550;12.070;2023-02-24T23:27:28;9.70;81.60
49148;DHT22;41980;45.550;12.070;2023-02-24T23:33:30;9.80;81.50
49148;DHT22;41980;45.550;12.070;2023-02-24T23:39:32;9.80;82.10
49148;DHT22;41980;45.550;12.070;2023-02-24T23:45:37;9.80;82.40
49148;DHT22;41980;45.550;12.070;2023-02-24T23:51:40;9.80;81.90
49148;DHT22;41980;45.550;12.070;2023-02-24T23:57:42;9.80;81.90
